createdAt,value
2023-04-22T00:00:32.121Z,100248.62
2023-04-22T00:03:35.329Z,100248.47
2023-04-22T00:06:38.183Z,100253.63
2023-04-22T00:09:41.202Z,100253.63
2023-04-22T00:12:44.026Z,100250.31
2023-04-22T00:15:46.689Z,100253.84
2023-04-22T00:18:49.314Z,100253.72
2023-04-22T00:21:51.978Z,100257.53
2023-04-22T00:24:54.477Z,100255.53
2023-04-22T00:27:57.274Z,100252.25
2023-04-22T00:30:59.657Z,100249.06
2023-04-22T00:34:02.363Z,100246.69
2023-04-22T00:37:04.748Z,100254.63
2023-04-22T00:40:08.308Z,100252.34
2023-04-22T00:43:11.537Z,100250.16
2023-04-22T00:46:16.187Z,100258.19
2023-04-22T00:49:19.998Z,100249.06
2023-04-22T00:52:22.977Z,100237.91
2023-04-22T00:55:25.378Z,100246.00
2023-04-22T00:58:29.457Z,100255.00
2023-04-22T01:01:31.985Z,100256.91
2023-04-22T01:04:34.923Z,100265.75
2023-04-22T01:07:37.655Z,100261.72
2023-04-22T01:10:41.521Z,100266.06
2023-04-22T01:13:43.838Z,100267.84
2023-04-22T01:16:46.929Z,100268.94
2023-04-22T01:19:49.362Z,100270.00
2023-04-22T01:22:53.890Z,100264.44
2023-04-22T01:25:57.310Z,100271.63
2023-04-22T01:29:01.700Z,100279.56
2023-04-22T01:32:04.677Z,100269.31
2023-04-22T01:35:07.809Z,100273.75
2023-04-22T01:38:11.203Z,100278.13
2023-04-22T01:41:14.418Z,100278.06
2023-04-22T01:44:19.724Z,100278.13
2023-04-22T01:47:22.667Z,100280.72
2023-04-22T01:50:25.504Z,100276.09
2023-04-22T01:53:28.232Z,100281.28
2023-04-22T01:56:30.640Z,100284.13
2023-04-22T01:59:33.220Z,100287.03
2023-04-22T02:02:35.951Z,100285.44
2023-04-22T02:05:38.629Z,100280.44
2023-04-22T02:08:41.090Z,100280.63
2023-04-22T02:11:43.764Z,100275.63
2023-04-22T02:14:45.998Z,100276.66
2023-04-22T02:17:51.621Z,100272.53
2023-04-22T02:20:53.959Z,100271.66
2023-04-22T02:23:56.848Z,100271.72
2023-04-22T02:26:59.230Z,100276.91
2023-04-22T02:30:03.952Z,100274.44
2023-04-22T02:33:06.999Z,100270.06
2023-04-22T02:36:09.762Z,100276.16
2023-04-22T02:39:12.261Z,100277.91
2023-04-22T02:42:15.160Z,100275.38
2023-04-22T02:45:17.445Z,100265.94
2023-04-22T02:48:20.515Z,100272.09
2023-04-22T02:51:23.019Z,100267.78
2023-04-22T02:54:25.739Z,100262.84
2023-04-22T02:57:28.188Z,100269.00
2023-04-22T03:00:31.131Z,100266.41
2023-04-22T03:03:33.863Z,100265.53
2023-04-22T03:06:36.639Z,100268.09
2023-04-22T03:09:39.183Z,100270.66
2023-04-22T03:12:42.057Z,100277.50
2023-04-22T03:15:44.398Z,100267.84
2023-04-22T03:18:46.994Z,100265.19
2023-04-22T03:21:49.477Z,100271.13
2023-04-22T03:24:52.185Z,100272.91
2023-04-22T03:27:54.671Z,100279.00
2023-04-22T03:30:57.389Z,100276.34
2023-04-22T03:33:59.872Z,100280.72
2023-04-22T03:37:03.192Z,100277.37
2023-04-22T03:40:05.978Z,100281.72
2023-04-22T03:43:09.323Z,100283.63
2023-04-22T03:46:11.654Z,100277.75
2023-04-22T03:49:14.843Z,100285.63
2023-04-22T03:52:18.168Z,100283.97
2023-04-22T03:55:21.552Z,100287.34
2023-04-22T03:58:25.219Z,100286.41
2023-04-22T04:01:28.784Z,100290.81
2023-04-22T04:04:32.589Z,100289.75
2023-04-22T04:07:35.734Z,100291.44
2023-04-22T04:10:38.442Z,100291.28
2023-04-22T04:13:41.352Z,100294.41
2023-04-22T04:16:44.815Z,100292.62
2023-04-22T04:19:47.715Z,100302.88
2023-04-22T04:22:50.914Z,100304.19
2023-04-22T04:25:53.995Z,100308.56
2023-04-22T04:28:57.653Z,100313.50
2023-04-22T04:32:00.119Z,100313.03
2023-04-22T04:35:03.573Z,100316.06
2023-04-22T04:38:06.281Z,100312.84
2023-04-22T04:41:10.794Z,100320.09
2023-04-22T04:44:14.134Z,100320.47
2023-04-22T04:47:17.061Z,100322.34
2023-04-22T04:50:22.752Z,100333.91
2023-04-22T04:53:25.817Z,100335.91
2023-04-22T04:56:31.002Z,100327.88
2023-04-22T04:59:33.919Z,100325.59
2023-04-22T05:02:36.933Z,100327.59
2023-04-22T05:05:40.664Z,100330.75
2023-04-22T05:08:43.416Z,100332.25
2023-04-22T05:11:46.017Z,100328.34
2023-04-22T05:14:49.412Z,100333.25
2023-04-22T05:17:52.405Z,100331.78
2023-04-22T05:20:55.463Z,100337.84
2023-04-22T05:23:58.615Z,100340.09
2023-04-22T05:27:01.841Z,100340.62
2023-04-22T05:30:05.458Z,100339.75
2023-04-22T05:33:09.082Z,100337.56
2023-04-22T05:36:12.122Z,100342.03
2023-04-22T05:39:15.651Z,100346.22
2023-04-22T05:42:19.350Z,100341.53
2023-04-22T05:45:21.820Z,100346.75
2023-04-22T05:48:25.239Z,100346.06
2023-04-22T05:51:28.993Z,100352.91
2023-04-22T05:54:31.953Z,100356.56
2023-04-22T05:57:34.335Z,100353.62
2023-04-22T06:00:37.736Z,100353.13
2023-04-22T06:03:42.210Z,100359.28
2023-04-22T06:06:44.781Z,100348.84
2023-04-22T06:09:48.526Z,100354.56
2023-04-22T06:12:51.065Z,100363.16
2023-04-22T06:15:53.878Z,100359.59
2023-04-22T06:18:56.462Z,100362.22
2023-04-22T06:21:59.515Z,100360.97
2023-04-22T06:25:01.914Z,100361.09
2023-04-22T06:28:04.685Z,100358.91
2023-04-22T06:31:08.419Z,100365.09
2023-04-22T06:34:11.497Z,100361.78
2023-04-22T06:37:14.114Z,100365.50
2023-04-22T06:40:16.892Z,100359.72
2023-04-22T06:43:22.863Z,100357.69
2023-04-22T06:46:31.418Z,100361.59
2023-04-22T06:49:38.412Z,100362.69
2023-04-22T06:52:41.991Z,100358.22
2023-04-22T06:55:44.510Z,100353.28
2023-04-22T06:58:47.626Z,100344.94
2023-04-22T07:01:50.160Z,100349.06
2023-04-22T07:04:53.357Z,100352.50
2023-04-22T07:07:55.802Z,100347.91
2023-04-22T07:10:59.466Z,100353.09
2023-04-22T07:14:02.635Z,100346.47
2023-04-22T07:17:05.322Z,100351.34
2023-04-22T07:20:07.962Z,100355.37
2023-04-22T07:23:10.698Z,100358.03
2023-04-22T07:26:13.367Z,100363.34
2023-04-22T07:29:15.988Z,100362.00
2023-04-22T07:32:18.661Z,100362.94
2023-04-22T07:35:21.947Z,100354.50
2023-04-22T07:38:24.757Z,100361.09
2023-04-22T07:41:27.506Z,100361.00
2023-04-22T07:44:29.804Z,100356.16
2023-04-22T07:47:32.515Z,100360.09
2023-04-22T07:50:36.370Z,100361.84
2023-04-22T07:53:40.401Z,100357.16
2023-04-22T07:56:43.103Z,100351.53
2023-04-22T07:59:46.223Z,100350.09
2023-04-22T08:02:48.688Z,100349.37
2023-04-22T08:05:51.583Z,100350.94
2023-04-22T08:08:54.068Z,100346.94
2023-04-22T08:11:57.926Z,100347.09
2023-04-22T08:15:00.192Z,100347.03
2023-04-22T08:18:02.887Z,100346.59
2023-04-22T08:21:05.633Z,100342.78
2023-04-22T08:24:08.303Z,100349.94
2023-04-22T08:27:10.875Z,100342.81
2023-04-22T08:30:14.740Z,100343.66
2023-04-22T08:33:17.440Z,100343.47
2023-04-22T08:36:22.901Z,100350.31
2023-04-22T08:39:25.545Z,100352.50
2023-04-22T08:42:28.277Z,100347.22
2023-04-22T08:45:31.402Z,100342.59
2023-04-22T08:48:34.091Z,100344.09
2023-04-22T08:51:36.860Z,100341.81
2023-04-22T08:54:39.640Z,100340.88
2023-04-22T08:57:42.072Z,100334.03
2023-04-22T09:00:45.306Z,100328.41
2023-04-22T09:03:48.709Z,100334.34
2023-04-22T09:06:51.391Z,100334.44
2023-04-22T09:09:57.257Z,100331.41
2023-04-22T09:13:00.153Z,100326.03
2023-04-22T09:16:02.689Z,100327.91
2023-04-22T09:19:06.144Z,100337.59
2023-04-22T09:22:14.701Z,100325.34
2023-04-22T09:25:21.941Z,100329.97
2023-04-22T09:28:24.300Z,100333.16
2023-04-22T09:31:27.498Z,100325.31
2023-04-22T09:34:29.966Z,100333.69
2023-04-22T09:37:46.334Z,100327.91
2023-04-22T09:40:51.548Z,100328.63
2023-04-22T09:44:00.764Z,100321.34
2023-04-22T09:47:03.559Z,100323.47
2023-04-22T09:50:06.710Z,100308.22
2023-04-22T09:53:10.791Z,100299.56
2023-04-22T09:56:13.540Z,100303.75
2023-04-22T09:59:20.826Z,100305.44
2023-04-22T10:02:28.889Z,100299.78
2023-04-22T10:05:31.666Z,100286.41
2023-04-22T10:08:35.380Z,100292.25
2023-04-22T10:11:38.219Z,100290.84
2023-04-22T10:14:40.911Z,100280.09
2023-04-22T10:17:44.956Z,100278.59
2023-04-22T10:20:47.948Z,100274.81
2023-04-22T10:23:50.683Z,100274.75
2023-04-22T10:27:01.636Z,100267.34
2023-04-22T10:30:04.870Z,100257.72
2023-04-22T10:33:29.020Z,100265.94
2023-04-22T10:36:32.466Z,100265.09
2023-04-22T10:39:35.588Z,100260.13
2023-04-22T10:42:39.644Z,100258.22
2023-04-22T10:45:41.916Z,100256.06
2023-04-22T10:48:48.051Z,100250.31
2023-04-22T10:51:53.481Z,100251.63
2023-04-22T10:54:57.441Z,100253.28
2023-04-22T10:57:59.763Z,100249.81
2023-04-22T11:01:14.597Z,100251.56
2023-04-22T11:04:23.532Z,100250.41
2023-04-22T11:07:30.695Z,100249.06
2023-04-22T11:10:42.978Z,100248.78
2023-04-22T11:13:47.651Z,100240.78
2023-04-22T11:16:51.390Z,100242.47
2023-04-22T11:19:56.338Z,100242.75
2023-04-22T11:22:59.071Z,100250.00
2023-04-22T11:26:03.456Z,100245.28
2023-04-22T11:29:05.856Z,100234.13
2023-04-22T11:32:09.850Z,100241.84
2023-04-22T11:35:13.468Z,100242.19
2023-04-22T11:38:16.132Z,100238.41
2023-04-22T11:41:20.952Z,100230.97
2023-04-22T11:44:23.687Z,100233.84
2023-04-22T11:47:28.957Z,100237.84
2023-04-22T11:50:33.280Z,100231.78
2023-04-22T11:53:35.887Z,100243.72
2023-04-22T11:56:38.430Z,100237.50
2023-04-22T11:59:41.522Z,100240.37
2023-04-22T12:02:55.044Z,100235.78
2023-04-22T12:05:57.816Z,100237.28
2023-04-22T12:09:01.165Z,100237.22
2023-04-22T12:12:04.398Z,100231.53
2023-04-22T12:15:12.715Z,100219.97
2023-04-22T12:18:16.457Z,100223.34
2023-04-22T12:21:23.809Z,100219.91
2023-04-22T12:24:30.085Z,100223.03
2023-04-22T12:27:32.414Z,100216.81
2023-04-22T12:30:35.891Z,100217.69
2023-04-22T12:33:38.724Z,100209.03
2023-04-22T12:36:41.957Z,100215.66
2023-04-22T12:39:44.628Z,100203.81
2023-04-22T12:42:47.268Z,100210.22
2023-04-22T12:45:49.957Z,100212.06
2023-04-22T12:48:52.746Z,100209.22
2023-04-22T12:51:55.413Z,100204.84
2023-04-22T12:54:58.034Z,100202.75
2023-04-22T12:58:00.435Z,100198.84
2023-04-22T13:01:03.229Z,100203.44
2023-04-22T13:04:06.132Z,100193.72
2023-04-22T13:07:08.841Z,100191.16
2023-04-22T13:10:13.325Z,100189.59
2023-04-22T13:13:18.942Z,100184.72
2023-04-22T13:16:21.830Z,100183.63
2023-04-22T13:19:25.826Z,100178.88
2023-04-22T13:22:28.510Z,100178.28
2023-04-22T13:25:31.412Z,100186.00
2023-04-22T13:28:34.200Z,100183.06
2023-04-22T13:31:37.727Z,100177.53
2023-04-22T13:34:40.405Z,100176.28
2023-04-22T13:37:43.168Z,100178.66
2023-04-22T13:40:45.794Z,100174.44
2023-04-22T13:43:52.992Z,100172.06
2023-04-22T13:46:55.297Z,100171.34
2023-04-22T13:49:58.079Z,100169.56
2023-04-22T13:53:00.482Z,100171.78
2023-04-22T13:56:03.247Z,100164.88
2023-04-22T13:59:05.654Z,100168.19
2023-04-22T14:02:08.341Z,100165.94
2023-04-22T14:05:11.079Z,100164.62
2023-04-22T14:08:13.425Z,100164.78
2023-04-22T14:11:16.065Z,100159.88
2023-04-22T14:14:18.414Z,100157.84
2023-04-22T14:17:22.589Z,100154.31
2023-04-22T14:20:25.504Z,100160.88
2023-04-22T14:23:28.128Z,100164.03
2023-04-22T14:26:32.606Z,100160.59
2023-04-22T14:29:35.203Z,100155.00
2023-04-22T14:32:37.655Z,100158.75
2023-04-22T14:35:40.391Z,100156.72
2023-04-22T14:38:42.806Z,100154.84
2023-04-22T14:41:45.542Z,100154.22
2023-04-22T14:44:47.865Z,100145.84
2023-04-22T14:47:50.643Z,100155.13
2023-04-22T14:50:53.516Z,100151.53
2023-04-22T14:53:56.183Z,100150.06
2023-04-22T14:56:58.675Z,100152.81
2023-04-22T15:00:01.629Z,100152.47
2023-04-22T15:03:05.749Z,100147.53
2023-04-22T15:06:08.641Z,100142.37
2023-04-22T15:09:11.495Z,100147.66
2023-04-22T15:12:17.039Z,100136.34
2023-04-22T15:15:19.692Z,100145.72
2023-04-22T15:18:22.800Z,100144.81
2023-04-22T15:21:25.629Z,100145.53
2023-04-22T15:24:28.748Z,100151.03
2023-04-22T15:27:31.107Z,100143.81
2023-04-22T15:30:33.895Z,100141.63
2023-04-22T15:33:37.058Z,100140.94
2023-04-22T15:36:39.704Z,100146.63
2023-04-22T15:39:43.279Z,100146.03
2023-04-22T15:42:45.924Z,100147.25
2023-04-22T15:45:48.279Z,100144.72
2023-04-22T15:48:50.936Z,100140.47
2023-04-22T15:51:53.425Z,100147.91
2023-04-22T15:54:56.049Z,100144.41
2023-04-22T15:57:58.361Z,100150.41
2023-04-22T16:01:11.523Z,100150.28
2023-04-22T16:04:21.473Z,100146.41
2023-04-22T16:07:23.939Z,100144.00
2023-04-22T16:10:27.930Z,100146.06
2023-04-22T16:13:30.328Z,100145.81
2023-04-22T16:16:32.919Z,100143.53
2023-04-22T16:19:35.938Z,100137.41
2023-04-22T16:22:38.936Z,100135.37
2023-04-22T16:25:41.317Z,100141.63
2023-04-22T16:28:44.017Z,100127.56
2023-04-22T16:31:46.294Z,100131.50
2023-04-22T16:34:48.980Z,100128.13
2023-04-22T16:37:51.399Z,100127.66
2023-04-22T16:40:54.649Z,100126.44
2023-04-22T16:43:57.332Z,100126.06
2023-04-22T16:47:00.046Z,100126.81
2023-04-22T16:50:02.511Z,100127.19
2023-04-22T16:53:07.831Z,100125.25
2023-04-22T16:56:10.370Z,100116.84
2023-04-22T16:59:14.507Z,100116.13
2023-04-22T17:02:17.979Z,100119.19
2023-04-22T17:05:20.833Z,100124.06
2023-04-22T17:08:23.391Z,100124.91
2023-04-22T17:11:26.023Z,100121.81
2023-04-22T17:14:28.344Z,100119.28
2023-04-22T17:17:31.099Z,100120.88
2023-04-22T17:20:36.677Z,100123.22
2023-04-22T17:23:39.522Z,100118.63
2023-04-22T17:26:42.551Z,100119.94
2023-04-22T17:29:46.532Z,100118.28
2023-04-22T17:32:49.042Z,100118.84
2023-04-22T17:35:51.626Z,100120.00
2023-04-22T17:38:54.171Z,100118.94
2023-04-22T17:41:58.575Z,100123.78
2023-04-22T17:45:00.921Z,100128.97
2023-04-22T17:48:03.614Z,100130.75
2023-04-22T17:51:06.753Z,100122.50
2023-04-22T17:54:09.426Z,100134.78
2023-04-22T17:57:12.292Z,100133.44
2023-04-22T18:00:15.232Z,100135.87
2023-04-22T18:03:20.356Z,100144.91
2023-04-22T18:06:23.156Z,100143.31
2023-04-22T18:09:27.228Z,100153.06
2023-04-22T18:12:30.909Z,100161.88
2023-04-22T18:15:33.492Z,100158.19
2023-04-22T18:18:36.065Z,100163.34
2023-04-22T18:21:46.556Z,100165.94
2023-04-22T18:24:55.568Z,100167.69
2023-04-22T18:27:58.239Z,100166.66
2023-04-22T18:31:00.608Z,100166.69
2023-04-22T18:34:03.396Z,100171.88
2023-04-22T18:37:05.854Z,100172.66
2023-04-22T18:40:08.842Z,100183.66
2023-04-22T18:43:11.204Z,100186.19
2023-04-22T18:46:13.951Z,100182.63
2023-04-22T18:49:16.449Z,100182.06
2023-04-22T18:52:19.423Z,100181.06
2023-04-22T18:55:21.861Z,100185.13
2023-04-22T18:58:24.569Z,100189.16
2023-04-22T19:01:27.714Z,100182.25
2023-04-22T19:04:31.096Z,100190.91
2023-04-22T19:07:33.438Z,100187.72
2023-04-22T19:10:36.540Z,100186.66
2023-04-22T19:13:38.921Z,100186.28
2023-04-22T19:16:41.574Z,100193.91
2023-04-22T19:19:45.465Z,100196.28
2023-04-22T19:22:48.278Z,100193.37
2023-04-22T19:25:50.650Z,100192.28
2023-04-22T19:28:53.306Z,100199.87
2023-04-22T19:31:57.220Z,100196.00
2023-04-22T19:35:02.407Z,100196.28
2023-04-22T19:38:06.180Z,100187.09
2023-04-22T19:41:11.575Z,100187.00
2023-04-22T19:44:14.098Z,100191.47
2023-04-22T19:47:16.800Z,100190.28
2023-04-22T19:50:19.385Z,100192.47
2023-04-22T19:53:22.745Z,100191.84
2023-04-22T19:56:26.236Z,100194.84
2023-04-22T19:59:31.184Z,100190.00
2023-04-22T20:02:34.645Z,100198.00
2023-04-22T20:05:37.686Z,100199.09
2023-04-22T20:08:42.102Z,100199.25
2023-04-22T20:11:44.901Z,100201.06
2023-04-22T20:14:48.237Z,100206.37
2023-04-22T20:17:51.669Z,100205.59
2023-04-22T20:20:58.623Z,100202.41
2023-04-22T20:24:02.782Z,100200.06
2023-04-22T20:27:05.319Z,100202.47
2023-04-22T20:30:08.993Z,100201.06
2023-04-22T20:33:15.161Z,100196.81
2023-04-22T20:36:22.259Z,100197.22
2023-04-22T20:39:24.794Z,100199.19
2023-04-22T20:42:27.665Z,100197.25
2023-04-22T20:45:30.058Z,100195.03
2023-04-22T20:48:32.871Z,100198.78
2023-04-22T20:51:35.311Z,100201.59
2023-04-22T20:54:39.231Z,100196.59
2023-04-22T20:57:41.780Z,100201.09
2023-04-22T21:00:45.565Z,100198.03
2023-04-22T21:03:52.643Z,100196.75
2023-04-22T21:06:56.197Z,100190.19
2023-04-22T21:09:58.649Z,100195.84
2023-04-22T21:13:01.317Z,100199.63
2023-04-22T21:16:08.234Z,100193.78
2023-04-22T21:19:14.672Z,100200.09
2023-04-22T21:22:20.940Z,100204.62
2023-04-22T21:25:24.386Z,100204.03
2023-04-22T21:28:27.146Z,100201.72
2023-04-22T21:31:29.917Z,100194.88
2023-04-22T21:34:32.235Z,100198.62
2023-04-22T21:37:34.954Z,100207.50
2023-04-22T21:40:37.353Z,100199.00
2023-04-22T21:43:40.002Z,100208.81
2023-04-22T21:46:42.572Z,100203.00
2023-04-22T21:49:47.086Z,100210.91
2023-04-22T21:52:49.885Z,100211.06
2023-04-22T21:55:52.614Z,100214.72
2023-04-22T21:58:55.676Z,100222.66
2023-04-22T22:02:01.037Z,100217.66
2023-04-22T22:05:04.013Z,100211.00
2023-04-22T22:08:07.094Z,100218.06
2023-04-22T22:11:12.528Z,100213.91
2023-04-22T22:14:19.972Z,100213.91
2023-04-22T22:17:22.810Z,100222.66
2023-04-22T22:20:26.537Z,100223.72
2023-04-22T22:23:29.111Z,100223.81
2023-04-22T22:26:31.384Z,100226.69
2023-04-22T22:29:34.269Z,100224.25
2023-04-22T22:32:37.076Z,100222.75
2023-04-22T22:35:39.676Z,100229.91
2023-04-22T22:38:41.972Z,100228.31
2023-04-22T22:41:44.623Z,100228.59
2023-04-22T22:44:46.890Z,100222.69
2023-04-22T22:47:49.830Z,100222.53
2023-04-22T22:50:53.052Z,100234.03
2023-04-22T22:53:55.874Z,100227.28
2023-04-22T22:56:58.429Z,100225.62
2023-04-22T23:00:01.114Z,100234.63
2023-04-22T23:03:03.851Z,100237.34
2023-04-22T23:06:07.277Z,100234.06
2023-04-22T23:09:10.791Z,100238.41
2023-04-22T23:12:13.955Z,100240.44
2023-04-22T23:15:16.551Z,100241.59
2023-04-22T23:18:19.418Z,100243.25
2023-04-22T23:21:23.111Z,100246.72
2023-04-22T23:24:25.900Z,100237.56
2023-04-22T23:27:28.611Z,100245.56
2023-04-22T23:30:31.410Z,100240.59
2023-04-22T23:33:35.007Z,100244.13
2023-04-22T23:36:37.711Z,100247.72
2023-04-22T23:39:41.941Z,100246.12
2023-04-22T23:42:44.635Z,100244.41
2023-04-22T23:45:47.102Z,100243.63
2023-04-22T23:48:50.017Z,100244.50
2023-04-22T23:51:52.390Z,100242.94
2023-04-22T23:54:55.336Z,100241.44
2023-04-22T23:57:57.985Z,100238.97
